sensor_id;sensor_type;location;lat;lon;timestamp;P1;durP1;ratioP1;P2;durP2;ratioP2
58310;SDS011;45001;52.218;5.154;2022-09-13T00:00:41;4.28;;;2.80;;
58310;SDS011;45001;52.218;5.154;2022-09-13T00:03:07;4.15;;;3.35;;
58310;SDS011;45001;52.218;5.154;2022-09-13T00:05:34;5.03;;;3.45;;
58310;SDS011;45001;52.218;5.154;2022-09-13T00:08:00;3.60;;;2.92;;
58310;SDS011;45001;52.218;5.154;2022-09-13T00:10:25;3.50;;;2.97;;
58310;SDS011;45001;52.218;5.154;2022-09-13T00:12:51;4.25;;;3.15;;
58310;SDS011;45001;52.218;5.154;2022-09-13T00:15:17;3.70;;;3.25;;
58310;SDS011;45001;52.218;5.154;2022-09-13T00:17:43;3.83;;;3.20;;
58310;SDS011;45001;52.218;5.154;2022-09-13T00:20:09;3.83;;;2.80;;
58310;SDS011;45001;52.218;5.154;2022-09-13T00:22:35;4.32;;;3.30;;
58310;SDS011;45001;52.218;5.154;2022-09-13T00:25:02;3.50;;;3.20;;
58310;SDS011;45001;52.218;5.154;2022-09-13T00:27:28;4.05;;;3.08;;
58310;SDS011;45001;52.218;5.154;2022-09-13T00:29:53;3.70;;;3.33;;
58310;SDS011;45001;52.218;5.154;2022-09-13T00:32:18;3.13;;;2.83;;
58310;SDS011;45001;52.218;5.154;2022-09-13T00:34:44;4.18;;;3.15;;
58310;SDS011;45001;52.218;5.154;2022-09-13T00:37:09;4.55;;;3.08;;
58310;SDS011;45001;52.218;5.154;2022-09-13T00:39:34;3.45;;;3.15;;
58310;SDS011;45001;52.218;5.154;2022-09-13T00:42:00;3.90;;;3.00;;
58310;SDS011;45001;52.218;5.154;2022-09-13T00:45:26;3.55;;;3.10;;
58310;SDS011;45001;52.218;5.154;2022-09-13T00:47:26;3.92;;;3.15;;
58310;SDS011;45001;52.218;5.154;2022-09-13T00:53:18;3.60;;;3.15;;
58310;SDS011;45001;52.218;5.154;2022-09-13T00:56:01;3.93;;;3.10;;
58310;SDS011;45001;52.218;5.154;2022-09-13T00:58:36;3.50;;;3.00;;
58310;SDS011;45001;52.218;5.154;2022-09-13T01:01:08;4.13;;;3.00;;
58310;SDS011;45001;52.218;5.154;2022-09-13T01:03:37;3.92;;;3.28;;
58310;SDS011;45001;52.218;5.154;2022-09-13T01:06:10;3.28;;;2.97;;
58310;SDS011;45001;52.218;5.154;2022-09-13T01:08:41;3.20;;;2.90;;
58310;SDS011;45001;52.218;5.154;2022-09-13T01:11:10;3.80;;;3.40;;
58310;SDS011;45001;52.218;5.154;2022-09-13T01:13:43;4.53;;;3.10;;
58310;SDS011;45001;52.218;5.154;2022-09-13T01:16:09;3.92;;;3.53;;
58310;SDS011;45001;52.218;5.154;2022-09-13T01:18:35;3.60;;;3.30;;
58310;SDS011;45001;52.218;5.154;2022-09-13T01:24:03;3.85;;;3.22;;
58310;SDS011;45001;52.218;5.154;2022-09-13T01:26:55;4.07;;;2.92;;
58310;SDS011;45001;52.218;5.154;2022-09-13T01:43:24;4.13;;;3.28;;
58310;SDS011;45001;52.218;5.154;2022-09-13T01:46:07;3.35;;;3.03;;
58310;SDS011;45001;52.218;5.154;2022-09-13T01:48:57;3.45;;;3.15;;
58310;SDS011;45001;52.218;5.154;2022-09-13T01:51:33;4.05;;;3.65;;
58310;SDS011;45001;52.218;5.154;2022-09-13T01:54:17;3.95;;;3.55;;
58310;SDS011;45001;52.218;5.154;2022-09-13T01:56:56;3.95;;;3.28;;
58310;SDS011;45001;52.218;5.154;2022-09-13T02:02:26;4.03;;;3.63;;
58310;SDS011;45001;52.218;5.154;2022-09-13T02:05:05;3.97;;;3.33;;
58310;SDS011;45001;52.218;5.154;2022-09-13T02:07:42;3.85;;;3.45;;
58310;SDS011;45001;52.218;5.154;2022-09-13T02:11:03;4.13;;;3.00;;
58310;SDS011;45001;52.218;5.154;2022-09-13T02:13:12;4.70;;;3.50;;
58310;SDS011;45001;52.218;5.154;2022-09-13T02:15:45;3.85;;;3.25;;
58310;SDS011;45001;52.218;5.154;2022-09-13T02:20:47;4.00;;;3.60;;
58310;SDS011;45001;52.218;5.154;2022-09-13T02:23:59;4.00;;;3.50;;
58310;SDS011;45001;52.218;5.154;2022-09-13T02:26:40;4.15;;;3.53;;
58310;SDS011;45001;52.218;5.154;2022-09-13T02:29:11;4.60;;;3.40;;
58310;SDS011;45001;52.218;5.154;2022-09-13T02:31:45;4.72;;;3.72;;
58310;SDS011;45001;52.218;5.154;2022-09-13T02:34:18;3.67;;;3.20;;
58310;SDS011;45001;52.218;5.154;2022-09-13T02:36:46;3.80;;;3.33;;
58310;SDS011;45001;52.218;5.154;2022-09-13T02:39:15;4.43;;;3.75;;
58310;SDS011;45001;52.218;5.154;2022-09-13T02:50:06;3.88;;;3.55;;
58310;SDS011;45001;52.218;5.154;2022-09-13T02:55:28;3.75;;;3.25;;
58310;SDS011;45001;52.218;5.154;2022-09-13T03:00:34;3.78;;;3.33;;
58310;SDS011;45001;52.218;5.154;2022-09-13T03:03:01;5.15;;;3.50;;
58310;SDS011;45001;52.218;5.154;2022-09-13T03:05:30;3.45;;;3.15;;
58310;SDS011;45001;52.218;5.154;2022-09-13T03:07:56;4.00;;;3.20;;
58310;SDS011;45001;52.218;5.154;2022-09-13T03:10:23;4.32;;;3.50;;
58310;SDS011;45001;52.218;5.154;2022-09-13T03:13:03;3.63;;;3.00;;
58310;SDS011;45001;52.218;5.154;2022-09-13T03:21:10;4.03;;;3.33;;
58310;SDS011;45001;52.218;5.154;2022-09-13T03:23:44;3.95;;;3.40;;
58310;SDS011;45001;52.218;5.154;2022-09-13T03:39:49;4.05;;;3.58;;
58310;SDS011;45001;52.218;5.154;2022-09-13T03:42:21;4.35;;;3.55;;
58310;SDS011;45001;52.218;5.154;2022-09-13T03:44:52;3.85;;;3.25;;
58310;SDS011;45001;52.218;5.154;2022-09-13T03:47:20;4.15;;;3.75;;
58310;SDS011;45001;52.218;5.154;2022-09-13T03:49:47;4.28;;;3.63;;
58310;SDS011;45001;52.218;5.154;2022-09-13T03:52:15;4.53;;;3.90;;
58310;SDS011;45001;52.218;5.154;2022-09-13T03:54:40;5.63;;;4.00;;
58310;SDS011;45001;52.218;5.154;2022-09-13T03:57:13;4.22;;;3.50;;
58310;SDS011;45001;52.218;5.154;2022-09-13T03:59:45;4.68;;;3.85;;
58310;SDS011;45001;52.218;5.154;2022-09-13T04:02:11;5.07;;;3.88;;
58310;SDS011;45001;52.218;5.154;2022-09-13T04:04:40;6.40;;;4.15;;
58310;SDS011;45001;52.218;5.154;2022-09-13T04:07:07;4.15;;;3.70;;
58310;SDS011;45001;52.218;5.154;2022-09-13T04:09:33;5.38;;;3.95;;
58310;SDS011;45001;52.218;5.154;2022-09-13T04:11:59;4.18;;;3.60;;
58310;SDS011;45001;52.218;5.154;2022-09-13T04:14:24;5.05;;;3.88;;
58310;SDS011;45001;52.218;5.154;2022-09-13T04:16:54;5.13;;;3.92;;
58310;SDS011;45001;52.218;5.154;2022-09-13T04:19:21;4.57;;;3.80;;
58310;SDS011;45001;52.218;5.154;2022-09-13T04:21:48;4.68;;;3.90;;
58310;SDS011;45001;52.218;5.154;2022-09-13T04:24:14;4.93;;;4.35;;
58310;SDS011;45001;52.218;5.154;2022-09-13T04:26:40;5.65;;;3.97;;
58310;SDS011;45001;52.218;5.154;2022-09-13T04:29:09;4.72;;;4.20;;
58310;SDS011;45001;52.218;5.154;2022-09-13T04:31:35;4.85;;;3.67;;
58310;SDS011;45001;52.218;5.154;2022-09-13T04:34:01;4.45;;;3.75;;
58310;SDS011;45001;52.218;5.154;2022-09-13T04:36:27;4.75;;;3.65;;
58310;SDS011;45001;52.218;5.154;2022-09-13T04:38:52;5.55;;;4.10;;
58310;SDS011;45001;52.218;5.154;2022-09-13T04:41:18;5.93;;;4.47;;
58310;SDS011;45001;52.218;5.154;2022-09-13T04:43:43;4.00;;;3.60;;
58310;SDS011;45001;52.218;5.154;2022-09-13T04:46:12;4.80;;;4.20;;
58310;SDS011;45001;52.218;5.154;2022-09-13T04:48:37;5.05;;;3.75;;
58310;SDS011;45001;52.218;5.154;2022-09-13T04:51:03;4.97;;;3.90;;
58310;SDS011;45001;52.218;5.154;2022-09-13T04:53:29;4.95;;;4.05;;
58310;SDS011;45001;52.218;5.154;2022-09-13T04:56:01;4.32;;;3.80;;
58310;SDS011;45001;52.218;5.154;2022-09-13T04:58:34;4.75;;;4.25;;
58310;SDS011;45001;52.218;5.154;2022-09-13T05:01:03;5.07;;;4.03;;
58310;SDS011;45001;52.218;5.154;2022-09-13T05:03:31;5.07;;;3.83;;
58310;SDS011;45001;52.218;5.154;2022-09-13T05:06:15;4.80;;;4.18;;
58310;SDS011;45001;52.218;5.154;2022-09-13T05:08:48;5.25;;;4.15;;
58310;SDS011;45001;52.218;5.154;2022-09-13T05:11:16;4.38;;;3.85;;
58310;SDS011;45001;52.218;5.154;2022-09-13T05:13:42;4.82;;;4.05;;
58310;SDS011;45001;52.218;5.154;2022-09-13T05:16:07;4.20;;;3.80;;
58310;SDS011;45001;52.218;5.154;2022-09-13T05:18:34;5.60;;;3.78;;
58310;SDS011;45001;52.218;5.154;2022-09-13T05:21:01;5.07;;;4.30;;
58310;SDS011;45001;52.218;5.154;2022-09-13T05:23:29;4.93;;;4.05;;
58310;SDS011;45001;52.218;5.154;2022-09-13T05:25:58;5.90;;;4.65;;
58310;SDS011;45001;52.218;5.154;2022-09-13T05:28:29;4.88;;;4.00;;
58310;SDS011;45001;52.218;5.154;2022-09-13T05:30:56;4.45;;;4.05;;
58310;SDS011;45001;52.218;5.154;2022-09-13T05:33:29;4.55;;;3.75;;
58310;SDS011;45001;52.218;5.154;2022-09-13T05:35:56;5.28;;;4.28;;
58310;SDS011;45001;52.218;5.154;2022-09-13T05:38:21;3.95;;;3.53;;
58310;SDS011;45001;52.218;5.154;2022-09-13T05:40:47;4.93;;;3.97;;
58310;SDS011;45001;52.218;5.154;2022-09-13T05:43:17;6.28;;;4.22;;
58310;SDS011;45001;52.218;5.154;2022-09-13T05:45:42;4.72;;;4.22;;
58310;SDS011;45001;52.218;5.154;2022-09-13T05:48:07;5.70;;;3.95;;
58310;SDS011;45001;52.218;5.154;2022-09-13T05:50:35;6.47;;;4.20;;
58310;SDS011;45001;52.218;5.154;2022-09-13T05:53:02;4.28;;;3.88;;
58310;SDS011;45001;52.218;5.154;2022-09-13T05:55:27;4.70;;;4.00;;
58310;SDS011;45001;52.218;5.154;2022-09-13T05:57:53;4.40;;;3.97;;
58310;SDS011;45001;52.218;5.154;2022-09-13T06:00:18;5.22;;;4.57;;
58310;SDS011;45001;52.218;5.154;2022-09-13T06:02:43;4.38;;;3.97;;
58310;SDS011;45001;52.218;5.154;2022-09-13T06:05:08;4.72;;;4.22;;
58310;SDS011;45001;52.218;5.154;2022-09-13T06:07:34;5.75;;;4.60;;
58310;SDS011;45001;52.218;5.154;2022-09-13T06:10:00;5.65;;;3.85;;
58310;SDS011;45001;52.218;5.154;2022-09-13T06:12:26;5.30;;;4.70;;
58310;SDS011;45001;52.218;5.154;2022-09-13T06:14:51;6.27;;;4.20;;
58310;SDS011;45001;52.218;5.154;2022-09-13T06:17:16;5.07;;;4.30;;
58310;SDS011;45001;52.218;5.154;2022-09-13T06:19:41;5.78;;;4.15;;
58310;SDS011;45001;52.218;5.154;2022-09-13T06:22:07;6.43;;;4.40;;
58310;SDS011;45001;52.218;5.154;2022-09-13T06:24:32;4.68;;;4.18;;
58310;SDS011;45001;52.218;5.154;2022-09-13T06:26:57;4.88;;;4.13;;
58310;SDS011;45001;52.218;5.154;2022-09-13T06:29:23;5.28;;;4.50;;
58310;SDS011;45001;52.218;5.154;2022-09-13T06:31:48;4.68;;;4.00;;
58310;SDS011;45001;52.218;5.154;2022-09-13T06:34:13;6.47;;;4.43;;
58310;SDS011;45001;52.218;5.154;2022-09-13T06:36:40;5.75;;;4.65;;
58310;SDS011;45001;52.218;5.154;2022-09-13T06:39:05;5.57;;;4.30;;
58310;SDS011;45001;52.218;5.154;2022-09-13T06:41:31;5.38;;;4.13;;
58310;SDS011;45001;52.218;5.154;2022-09-13T06:43:58;4.40;;;3.78;;
58310;SDS011;45001;52.218;5.154;2022-09-13T06:46:25;5.35;;;4.18;;
58310;SDS011;45001;52.218;5.154;2022-09-13T06:48:52;6.88;;;4.28;;
58310;SDS011;45001;52.218;5.154;2022-09-13T06:51:19;4.53;;;3.47;;
58310;SDS011;45001;52.218;5.154;2022-09-13T06:53:48;4.63;;;3.85;;
58310;SDS011;45001;52.218;5.154;2022-09-13T06:56:16;5.07;;;3.88;;
58310;SDS011;45001;52.218;5.154;2022-09-13T06:58:44;3.97;;;3.47;;
58310;SDS011;45001;52.218;5.154;2022-09-13T07:01:12;4.50;;;3.55;;
58310;SDS011;45001;52.218;5.154;2022-09-13T07:06:08;7.38;;;3.45;;
58310;SDS011;45001;52.218;5.154;2022-09-13T07:08:35;4.45;;;3.33;;
58310;SDS011;45001;52.218;5.154;2022-09-13T07:11:01;3.47;;;2.75;;
58310;SDS011;45001;52.218;5.154;2022-09-13T07:13:26;4.38;;;3.53;;
58310;SDS011;45001;52.218;5.154;2022-09-13T07:15:52;3.72;;;3.10;;
58310;SDS011;45001;52.218;5.154;2022-09-13T07:18:17;4.28;;;3.22;;
58310;SDS011;45001;52.218;5.154;2022-09-13T07:20:42;3.30;;;2.80;;
58310;SDS011;45001;52.218;5.154;2022-09-13T07:23:07;3.63;;;3.20;;
58310;SDS011;45001;52.218;5.154;2022-09-13T07:25:33;3.25;;;2.85;;
58310;SDS011;45001;52.218;5.154;2022-09-13T07:27:58;3.53;;;2.92;;
58310;SDS011;45001;52.218;5.154;2022-09-13T07:30:23;3.33;;;2.80;;
58310;SDS011;45001;52.218;5.154;2022-09-13T07:32:50;3.30;;;2.88;;
58310;SDS011;45001;52.218;5.154;2022-09-13T07:35:16;4.47;;;2.83;;
58310;SDS011;45001;52.218;5.154;2022-09-13T07:37:41;4.10;;;3.00;;
58310;SDS011;45001;52.218;5.154;2022-09-13T07:40:06;2.78;;;2.47;;
58310;SDS011;45001;52.218;5.154;2022-09-13T07:42:32;3.13;;;2.50;;
58310;SDS011;45001;52.218;5.154;2022-09-13T07:44:58;3.55;;;2.80;;
58310;SDS011;45001;52.218;5.154;2022-09-13T07:47:23;3.57;;;2.80;;
58310;SDS011;45001;52.218;5.154;2022-09-13T07:49:48;3.38;;;2.63;;
58310;SDS011;45001;52.218;5.154;2022-09-13T07:52:14;3.17;;;2.88;;
58310;SDS011;45001;52.218;5.154;2022-09-13T07:54:39;3.10;;;2.70;;
58310;SDS011;45001;52.218;5.154;2022-09-13T07:57:05;3.63;;;2.45;;
58310;SDS011;45001;52.218;5.154;2022-09-13T07:59:30;3.53;;;2.75;;
58310;SDS011;45001;52.218;5.154;2022-09-13T08:01:55;2.90;;;2.35;;
58310;SDS011;45001;52.218;5.154;2022-09-13T08:04:22;4.05;;;2.50;;
58310;SDS011;45001;52.218;5.154;2022-09-13T08:06:49;3.25;;;2.50;;
58310;SDS011;45001;52.218;5.154;2022-09-13T08:09:15;3.20;;;2.33;;
58310;SDS011;45001;52.218;5.154;2022-09-13T08:11:42;2.55;;;2.20;;
58310;SDS011;45001;52.218;5.154;2022-09-13T08:14:17;3.00;;;2.33;;
58310;SDS011;45001;52.218;5.154;2022-09-13T08:16:43;2.92;;;2.60;;
58310;SDS011;45001;52.218;5.154;2022-09-13T08:19:11;2.60;;;2.25;;
58310;SDS011;45001;52.218;5.154;2022-09-13T08:21:38;3.58;;;2.60;;
58310;SDS011;45001;52.218;5.154;2022-09-13T08:24:05;3.70;;;2.30;;
58310;SDS011;45001;52.218;5.154;2022-09-13T08:26:32;3.33;;;2.33;;
58310;SDS011;45001;52.218;5.154;2022-09-13T08:29:00;3.03;;;2.20;;
58310;SDS011;45001;52.218;5.154;2022-09-13T08:31:28;3.00;;;2.42;;
58310;SDS011;45001;52.218;5.154;2022-09-13T08:33:54;3.63;;;2.30;;
58310;SDS011;45001;52.218;5.154;2022-09-13T08:36:20;2.72;;;1.98;;
58310;SDS011;45001;52.218;5.154;2022-09-13T08:38:48;3.40;;;2.13;;
58310;SDS011;45001;52.218;5.154;2022-09-13T08:46:51;3.03;;;2.00;;
58310;SDS011;45001;52.218;5.154;2022-09-13T08:49:32;3.65;;;1.83;;
58310;SDS011;45001;52.218;5.154;2022-09-13T08:52:46;2.53;;;1.90;;
58310;SDS011;45001;52.218;5.154;2022-09-13T08:55:10;2.55;;;2.00;;
58310;SDS011;45001;52.218;5.154;2022-09-13T08:57:52;3.13;;;2.00;;
58310;SDS011;45001;52.218;5.154;2022-09-13T09:00:27;2.95;;;2.00;;
58310;SDS011;45001;52.218;5.154;2022-09-13T09:05:48;2.73;;;1.70;;
58310;SDS011;45001;52.218;5.154;2022-09-13T09:11:09;2.80;;;1.85;;
58310;SDS011;45001;52.218;5.154;2022-09-13T09:19:12;2.38;;;1.60;;
58310;SDS011;45001;52.218;5.154;2022-09-13T09:21:43;2.10;;;1.90;;
58310;SDS011;45001;52.218;5.154;2022-09-13T09:24:16;2.25;;;1.70;;
58310;SDS011;45001;52.218;5.154;2022-09-13T09:26:46;3.17;;;1.83;;
58310;SDS011;45001;52.218;5.154;2022-09-13T09:32:04;2.72;;;1.63;;
58310;SDS011;45001;52.218;5.154;2022-09-13T09:34:36;2.33;;;1.67;;
58310;SDS011;45001;52.218;5.154;2022-09-13T09:37:24;3.00;;;1.80;;
58310;SDS011;45001;52.218;5.154;2022-09-13T09:39:52;2.42;;;1.75;;
58310;SDS011;45001;52.218;5.154;2022-09-13T09:42:21;2.15;;;1.58;;
58310;SDS011;45001;52.218;5.154;2022-09-13T09:44:50;2.47;;;1.70;;
58310;SDS011;45001;52.218;5.154;2022-09-13T09:47:21;3.20;;;1.50;;
58310;SDS011;45001;52.218;5.154;2022-09-13T09:52:39;1.80;;;1.42;;
58310;SDS011;45001;52.218;5.154;2022-09-13T09:57:57;2.30;;;1.65;;
58310;SDS011;45001;52.218;5.154;2022-09-13T10:00:26;2.47;;;1.80;;
58310;SDS011;45001;52.218;5.154;2022-09-13T10:02:58;2.85;;;1.58;;
58310;SDS011;45001;52.218;5.154;2022-09-13T10:05:27;2.38;;;1.45;;
58310;SDS011;45001;52.218;5.154;2022-09-13T10:07:58;2.40;;;1.70;;
58310;SDS011;45001;52.218;5.154;2022-09-13T10:10:39;3.05;;;1.55;;
58310;SDS011;45001;52.218;5.154;2022-09-13T10:13:12;1.92;;;1.67;;
58310;SDS011;45001;52.218;5.154;2022-09-13T10:16:42;2.45;;;1.45;;
58310;SDS011;45001;52.218;5.154;2022-09-13T10:18:53;1.77;;;1.20;;
58310;SDS011;45001;52.218;5.154;2022-09-13T10:21:23;3.45;;;1.50;;
58310;SDS011;45001;52.218;5.154;2022-09-13T10:23:50;2.55;;;1.42;;
58310;SDS011;45001;52.218;5.154;2022-09-13T10:34:00;2.22;;;1.30;;
58310;SDS011;45001;52.218;5.154;2022-09-13T10:36:30;2.92;;;1.52;;
58310;SDS011;45001;52.218;5.154;2022-09-13T10:41:25;3.15;;;1.30;;
58310;SDS011;45001;52.218;5.154;2022-09-13T10:43:59;2.35;;;1.48;;
58310;SDS011;45001;52.218;5.154;2022-09-13T10:46:30;3.17;;;1.48;;
58310;SDS011;45001;52.218;5.154;2022-09-13T10:48:59;2.40;;;1.30;;
58310;SDS011;45001;52.218;5.154;2022-09-13T10:51:35;2.28;;;1.42;;
58310;SDS011;45001;52.218;5.154;2022-09-13T10:56:44;2.83;;;1.50;;
58310;SDS011;45001;52.218;5.154;2022-09-13T11:10:31;2.45;;;1.10;;
58310;SDS011;45001;52.218;5.154;2022-09-13T11:13:13;2.58;;;1.25;;
58310;SDS011;45001;52.218;5.154;2022-09-13T11:15:57;2.08;;;1.35;;
58310;SDS011;45001;52.218;5.154;2022-09-13T11:21:52;2.28;;;1.10;;
58310;SDS011;45001;52.218;5.154;2022-09-13T11:24:32;2.90;;;1.23;;
58310;SDS011;45001;52.218;5.154;2022-09-13T11:27:28;2.65;;;1.30;;
58310;SDS011;45001;52.218;5.154;2022-09-13T11:30:11;2.47;;;1.30;;
58310;SDS011;45001;52.218;5.154;2022-09-13T11:50:00;3.00;;;1.10;;
58310;SDS011;45001;52.218;5.154;2022-09-13T11:58:09;1.60;;;1.00;;
58310;SDS011;45001;52.218;5.154;2022-09-13T12:05:39;1.73;;;1.10;;
58310;SDS011;45001;52.218;5.154;2022-09-13T12:10:56;2.72;;;1.10;;
58310;SDS011;45001;52.218;5.154;2022-09-13T12:13:28;1.92;;;1.10;;
58310;SDS011;45001;52.218;5.154;2022-09-13T12:16:00;1.17;;;0.90;;
58310;SDS011;45001;52.218;5.154;2022-09-13T12:18:37;3.60;;;1.02;;
58310;SDS011;45001;52.218;5.154;2022-09-13T12:21:15;2.55;;;1.33;;
58310;SDS011;45001;52.218;5.154;2022-09-13T12:23:52;2.42;;;0.98;;
58310;SDS011;45001;52.218;5.154;2022-09-13T12:26:29;2.65;;;1.27;;
58310;SDS011;45001;52.218;5.154;2022-09-13T12:31:52;2.88;;;1.40;;
58310;SDS011;45001;52.218;5.154;2022-09-13T12:34:28;2.50;;;0.90;;
58310;SDS011;45001;52.218;5.154;2022-09-13T13:04:55;1.40;;;0.70;;
58310;SDS011;45001;52.218;5.154;2022-09-13T13:07:24;2.25;;;0.82;;
58310;SDS011;45001;52.218;5.154;2022-09-13T13:09:51;4.10;;;0.98;;
58310;SDS011;45001;52.218;5.154;2022-09-13T13:15:07;2.88;;;1.02;;
58310;SDS011;45001;52.218;5.154;2022-09-13T13:17:49;3.03;;;1.00;;
58310;SDS011;45001;52.218;5.154;2022-09-13T13:25:56;2.97;;;0.80;;
58310;SDS011;45001;52.218;5.154;2022-09-13T13:54:56;1.70;;;0.75;;
58310;SDS011;45001;52.218;5.154;2022-09-13T14:11:01;1.02;;;0.60;;
58310;SDS011;45001;52.218;5.154;2022-09-13T14:21:33;1.90;;;0.75;;
58310;SDS011;45001;52.218;5.154;2022-09-13T14:29:18;2.20;;;0.80;;
58310;SDS011;45001;52.218;5.154;2022-09-13T14:31:48;1.58;;;0.55;;
58310;SDS011;45001;52.218;5.154;2022-09-13T14:34:34;1.75;;;0.65;;
58310;SDS011;45001;52.218;5.154;2022-09-13T14:37:04;2.53;;;0.68;;
58310;SDS011;45001;52.218;5.154;2022-09-13T14:39:31;1.85;;;0.70;;
58310;SDS011;45001;52.218;5.154;2022-09-13T14:42:18;2.05;;;0.80;;
58310;SDS011;45001;52.218;5.154;2022-09-13T14:44:43;1.58;;;0.60;;
58310;SDS011;45001;52.218;5.154;2022-09-13T14:50:04;1.75;;;0.60;;
58310;SDS011;45001;52.218;5.154;2022-09-13T14:55:38;1.77;;;0.70;;
58310;SDS011;45001;52.218;5.154;2022-09-13T14:58:07;1.67;;;0.70;;
58310;SDS011;45001;52.218;5.154;2022-09-13T15:00:59;1.38;;;0.90;;
58310;SDS011;45001;52.218;5.154;2022-09-13T15:03:28;2.17;;;0.70;;
58310;SDS011;45001;52.218;5.154;2022-09-13T15:05:54;1.80;;;0.60;;
58310;SDS011;45001;52.218;5.154;2022-09-13T15:10:59;1.92;;;0.70;;
58310;SDS011;45001;52.218;5.154;2022-09-13T15:13:26;2.38;;;0.80;;
58310;SDS011;45001;52.218;5.154;2022-09-13T15:15:51;1.90;;;0.70;;
58310;SDS011;45001;52.218;5.154;2022-09-13T15:24:00;1.40;;;0.55;;
58310;SDS011;45001;52.218;5.154;2022-09-13T15:26:04;1.70;;;0.80;;
58310;SDS011;45001;52.218;5.154;2022-09-13T15:28:32;0.93;;;0.50;;
58310;SDS011;45001;52.218;5.154;2022-09-13T15:31:22;2.30;;;0.70;;
58310;SDS011;45001;52.218;5.154;2022-09-13T15:36:47;1.60;;;0.60;;
58310;SDS011;45001;52.218;5.154;2022-09-13T15:39:25;1.80;;;0.50;;
58310;SDS011;45001;52.218;5.154;2022-09-13T15:41:52;2.10;;;0.60;;
58310;SDS011;45001;52.218;5.154;2022-09-13T15:44:19;1.95;;;0.60;;
58310;SDS011;45001;52.218;5.154;2022-09-13T15:46:52;2.70;;;0.80;;
58310;SDS011;45001;52.218;5.154;2022-09-13T15:49:20;1.42;;;0.70;;
58310;SDS011;45001;52.218;5.154;2022-09-13T15:51:53;1.60;;;0.80;;
58310;SDS011;45001;52.218;5.154;2022-09-13T15:54:20;1.45;;;0.60;;
58310;SDS011;45001;52.218;5.154;2022-09-13T15:56:47;3.05;;;0.70;;
58310;SDS011;45001;52.218;5.154;2022-09-13T15:59:16;1.85;;;0.60;;
58310;SDS011;45001;52.218;5.154;2022-09-13T16:01:42;1.67;;;0.70;;
58310;SDS011;45001;52.218;5.154;2022-09-13T16:04:09;1.88;;;0.57;;
58310;SDS011;45001;52.218;5.154;2022-09-13T16:06:35;2.67;;;1.08;;
58310;SDS011;45001;52.218;5.154;2022-09-13T16:09:00;1.60;;;0.70;;
58310;SDS011;45001;52.218;5.154;2022-09-13T16:11:26;1.92;;;0.60;;
58310;SDS011;45001;52.218;5.154;2022-09-13T16:13:52;1.40;;;0.60;;
58310;SDS011;45001;52.218;5.154;2022-09-13T16:16:17;1.67;;;0.82;;
58310;SDS011;45001;52.218;5.154;2022-09-13T16:18:43;2.47;;;0.60;;
58310;SDS011;45001;52.218;5.154;2022-09-13T16:21:08;2.22;;;1.00;;
58310;SDS011;45001;52.218;5.154;2022-09-13T16:23:34;2.13;;;0.60;;
58310;SDS011;45001;52.218;5.154;2022-09-13T16:25:59;2.15;;;0.90;;
58310;SDS011;45001;52.218;5.154;2022-09-13T16:28:26;1.60;;;0.60;;
58310;SDS011;45001;52.218;5.154;2022-09-13T16:30:52;1.65;;;0.65;;
58310;SDS011;45001;52.218;5.154;2022-09-13T16:33:17;1.63;;;0.80;;
58310;SDS011;45001;52.218;5.154;2022-09-13T16:35:43;1.38;;;0.70;;
58310;SDS011;45001;52.218;5.154;2022-09-13T16:38:09;1.63;;;0.60;;
58310;SDS011;45001;52.218;5.154;2022-09-13T16:40:36;2.88;;;0.70;;
58310;SDS011;45001;52.218;5.154;2022-09-13T16:43:03;1.02;;;0.60;;
58310;SDS011;45001;52.218;5.154;2022-09-13T16:45:28;2.65;;;0.70;;
58310;SDS011;45001;52.218;5.154;2022-09-13T16:47:53;2.60;;;0.68;;
58310;SDS011;45001;52.218;5.154;2022-09-13T16:50:18;2.53;;;0.90;;
58310;SDS011;45001;52.218;5.154;2022-09-13T16:52:44;1.08;;;0.55;;
58310;SDS011;45001;52.218;5.154;2022-09-13T16:55:09;2.93;;;0.83;;
58310;SDS011;45001;52.218;5.154;2022-09-13T16:57:34;2.65;;;0.70;;
58310;SDS011;45001;52.218;5.154;2022-09-13T17:00:01;1.17;;;0.60;;
58310;SDS011;45001;52.218;5.154;2022-09-13T17:02:31;2.72;;;0.70;;
58310;SDS011;45001;52.218;5.154;2022-09-13T17:04:57;2.60;;;1.08;;
58310;SDS011;45001;52.218;5.154;2022-09-13T17:07:23;1.85;;;0.80;;
58310;SDS011;45001;52.218;5.154;2022-09-13T17:09:48;1.50;;;0.63;;
58310;SDS011;45001;52.218;5.154;2022-09-13T17:12:14;1.52;;;0.57;;
58310;SDS011;45001;52.218;5.154;2022-09-13T17:14:40;1.23;;;0.60;;
58310;SDS011;45001;52.218;5.154;2022-09-13T17:17:11;2.65;;;0.98;;
58310;SDS011;45001;52.218;5.154;2022-09-13T17:19:38;2.83;;;0.90;;
58310;SDS011;45001;52.218;5.154;2022-09-13T17:22:04;1.65;;;0.82;;
58310;SDS011;45001;52.218;5.154;2022-09-13T17:24:32;3.58;;;0.80;;
58310;SDS011;45001;52.218;5.154;2022-09-13T17:26:58;2.05;;;0.70;;
58310;SDS011;45001;52.218;5.154;2022-09-13T17:29:24;1.95;;;0.88;;
58310;SDS011;45001;52.218;5.154;2022-09-13T17:31:52;1.60;;;0.60;;
58310;SDS011;45001;52.218;5.154;2022-09-13T17:34:17;2.80;;;0.70;;
58310;SDS011;45001;52.218;5.154;2022-09-13T17:36:43;2.90;;;0.73;;
58310;SDS011;45001;52.218;5.154;2022-09-13T17:39:08;2.45;;;0.70;;
58310;SDS011;45001;52.218;5.154;2022-09-13T17:41:34;1.48;;;0.60;;
58310;SDS011;45001;52.218;5.154;2022-09-13T17:44:00;2.17;;;0.73;;
58310;SDS011;45001;52.218;5.154;2022-09-13T17:46:26;4.43;;;0.80;;
58310;SDS011;45001;52.218;5.154;2022-09-13T17:48:53;1.83;;;0.80;;
58310;SDS011;45001;52.218;5.154;2022-09-13T17:51:24;2.30;;;0.70;;
58310;SDS011;45001;52.218;5.154;2022-09-13T17:53:52;4.68;;;0.80;;
58310;SDS011;45001;52.218;5.154;2022-09-13T17:56:23;3.75;;;1.00;;
58310;SDS011;45001;52.218;5.154;2022-09-13T17:58:51;2.92;;;0.98;;
58310;SDS011;45001;52.218;5.154;2022-09-13T18:01:16;1.75;;;0.80;;
58310;SDS011;45001;52.218;5.154;2022-09-13T18:03:42;2.50;;;0.85;;
58310;SDS011;45001;52.218;5.154;2022-09-13T18:06:08;3.88;;;0.95;;
58310;SDS011;45001;52.218;5.154;2022-09-13T18:08:35;4.65;;;1.00;;
58310;SDS011;45001;52.218;5.154;2022-09-13T18:11:09;2.50;;;0.85;;
58310;SDS011;45001;52.218;5.154;2022-09-13T18:13:36;2.85;;;0.50;;
58310;SDS011;45001;52.218;5.154;2022-09-13T18:16:04;2.97;;;0.80;;
58310;SDS011;45001;52.218;5.154;2022-09-13T18:18:38;3.50;;;0.88;;
58310;SDS011;45001;52.218;5.154;2022-09-13T18:21:04;5.32;;;1.30;;
58310;SDS011;45001;52.218;5.154;2022-09-13T18:23:31;4.47;;;1.08;;
58310;SDS011;45001;52.218;5.154;2022-09-13T18:28:29;5.95;;;1.17;;
58310;SDS011;45001;52.218;5.154;2022-09-13T18:30:56;3.30;;;1.00;;
58310;SDS011;45001;52.218;5.154;2022-09-13T18:33:23;3.55;;;0.70;;
58310;SDS011;45001;52.218;5.154;2022-09-13T18:36:06;2.00;;;0.75;;
58310;SDS011;45001;52.218;5.154;2022-09-13T18:38:35;3.85;;;0.90;;
58310;SDS011;45001;52.218;5.154;2022-09-13T18:43:35;3.55;;;0.80;;
58310;SDS011;45001;52.218;5.154;2022-09-13T18:46:02;4.10;;;0.88;;
58310;SDS011;45001;52.218;5.154;2022-09-13T18:48:30;2.80;;;0.90;;
58310;SDS011;45001;52.218;5.154;2022-09-13T18:50:57;6.03;;;1.33;;
58310;SDS011;45001;52.218;5.154;2022-09-13T18:53:24;5.07;;;1.38;;
58310;SDS011;45001;52.218;5.154;2022-09-13T18:55:49;3.30;;;1.08;;
58310;SDS011;45001;52.218;5.154;2022-09-13T18:58:15;1.98;;;0.60;;
58310;SDS011;45001;52.218;5.154;2022-09-13T19:00:40;2.97;;;0.80;;
58310;SDS011;45001;52.218;5.154;2022-09-13T19:03:07;4.15;;;1.15;;
58310;SDS011;45001;52.218;5.154;2022-09-13T19:05:34;3.30;;;0.80;;
58310;SDS011;45001;52.218;5.154;2022-09-13T19:08:09;4.05;;;0.80;;
58310;SDS011;45001;52.218;5.154;2022-09-13T19:10:35;3.67;;;0.88;;
58310;SDS011;45001;52.218;5.154;2022-09-13T19:13:04;4.18;;;0.93;;
58310;SDS011;45001;52.218;5.154;2022-09-13T19:15:32;3.88;;;0.90;;
58310;SDS011;45001;52.218;5.154;2022-09-13T19:17:57;3.92;;;0.70;;
58310;SDS011;45001;52.218;5.154;2022-09-13T19:20:23;2.60;;;0.90;;